sensor_id;sensor_type;location;lat;lon;timestamp;P1;durP1;ratioP1;P2;durP2;ratioP2
53642;SDS011;39546;45.534;12.048;2022-12-08T00:01:25;11.65;;;10.25;;
53642;SDS011;39546;45.534;12.048;2022-12-08T00:07:28;10.82;;;9.00;;
53642;SDS011;39546;45.534;12.048;2022-12-08T00:13:49;13.85;;;9.60;;
53642;SDS011;39546;45.534;12.048;2022-12-08T00:19:52;11.32;;;8.35;;
53642;SDS011;39546;45.534;12.048;2022-12-08T00:25:54;10.18;;;8.02;;
53642;SDS011;39546;45.534;12.048;2022-12-08T00:31:56;9.57;;;7.37;;
53642;SDS011;39546;45.534;12.048;2022-12-08T00:37:58;10.00;;;7.25;;
53642;SDS011;39546;45.534;12.048;2022-12-08T00:44:00;9.15;;;7.00;;
53642;SDS011;39546;45.534;12.048;2022-12-08T00:50:02;9.73;;;6.07;;
53642;SDS011;39546;45.534;12.048;2022-12-08T00:56:04;9.57;;;6.82;;
53642;SDS011;39546;45.534;12.048;2022-12-08T01:02:06;13.45;;;8.45;;
53642;SDS011;39546;45.534;12.048;2022-12-08T01:08:08;9.63;;;6.93;;
53642;SDS011;39546;45.534;12.048;2022-12-08T01:14:11;10.30;;;6.30;;
53642;SDS011;39546;45.534;12.048;2022-12-08T01:20:13;10.23;;;7.20;;
53642;SDS011;39546;45.534;12.048;2022-12-08T01:26:16;9.05;;;6.55;;
53642;SDS011;39546;45.534;12.048;2022-12-08T01:32:19;8.30;;;5.70;;
53642;SDS011;39546;45.534;12.048;2022-12-08T01:38:21;10.07;;;6.45;;
53642;SDS011;39546;45.534;12.048;2022-12-08T01:50:26;6.82;;;5.43;;
53642;SDS011;39546;45.534;12.048;2022-12-08T02:02:58;9.52;;;6.12;;
53642;SDS011;39546;45.534;12.048;2022-12-08T02:09:04;10.60;;;6.97;;
53642;SDS011;39546;45.534;12.048;2022-12-08T02:15:07;9.88;;;6.82;;
53642;SDS011;39546;45.534;12.048;2022-12-08T02:21:12;10.02;;;5.93;;
53642;SDS011;39546;45.534;12.048;2022-12-08T02:40:35;7.90;;;5.70;;
53642;SDS011;39546;45.534;12.048;2022-12-08T02:46:58;8.82;;;6.07;;
53642;SDS011;39546;45.534;12.048;2022-12-08T02:53:06;8.80;;;4.93;;
53642;SDS011;39546;45.534;12.048;2022-12-08T03:12:24;8.70;;;6.07;;
53642;SDS011;39546;45.534;12.048;2022-12-08T03:19:39;6.35;;;4.35;;
53642;SDS011;39546;45.534;12.048;2022-12-08T03:38:21;9.32;;;6.07;;
53642;SDS011;39546;45.534;12.048;2022-12-08T03:44:23;7.60;;;5.40;;
53642;SDS011;39546;45.534;12.048;2022-12-08T03:50:25;6.95;;;5.12;;
53642;SDS011;39546;45.534;12.048;2022-12-08T03:56:31;8.10;;;5.30;;
53642;SDS011;39546;45.534;12.048;2022-12-08T04:02:35;9.10;;;6.07;;
53642;SDS011;39546;45.534;12.048;2022-12-08T04:08:38;9.35;;;6.12;;
53642;SDS011;39546;45.534;12.048;2022-12-08T04:14:40;7.68;;;5.80;;
53642;SDS011;39546;45.534;12.048;2022-12-08T04:20:43;10.35;;;5.20;;
53642;SDS011;39546;45.534;12.048;2022-12-08T04:26:46;7.65;;;5.78;;
53642;SDS011;39546;45.534;12.048;2022-12-08T04:32:50;7.45;;;5.07;;
53642;SDS011;39546;45.534;12.048;2022-12-08T04:38:51;7.70;;;5.40;;
53642;SDS011;39546;45.534;12.048;2022-12-08T04:44:54;8.20;;;5.62;;
53642;SDS011;39546;45.534;12.048;2022-12-08T04:50:56;10.05;;;7.87;;
53642;SDS011;39546;45.534;12.048;2022-12-08T04:56:59;8.55;;;6.18;;
53642;SDS011;39546;45.534;12.048;2022-12-08T05:03:01;8.40;;;5.62;;
53642;SDS011;39546;45.534;12.048;2022-12-08T05:09:03;8.60;;;5.32;;
53642;SDS011;39546;45.534;12.048;2022-12-08T05:15:05;8.20;;;5.62;;
53642;SDS011;39546;45.534;12.048;2022-12-08T05:21:08;7.40;;;3.80;;
53642;SDS011;39546;45.534;12.048;2022-12-08T05:27:10;6.53;;;4.50;;
53642;SDS011;39546;45.534;12.048;2022-12-08T05:33:12;7.10;;;4.25;;
53642;SDS011;39546;45.534;12.048;2022-12-08T05:39:15;5.97;;;4.28;;
53642;SDS011;39546;45.534;12.048;2022-12-08T05:45:17;6.93;;;4.05;;
53642;SDS011;39546;45.534;12.048;2022-12-08T05:51:20;6.10;;;4.03;;
53642;SDS011;39546;45.534;12.048;2022-12-08T05:57:23;7.70;;;5.03;;
53642;SDS011;39546;45.534;12.048;2022-12-08T06:03:25;10.65;;;5.80;;
53642;SDS011;39546;45.534;12.048;2022-12-08T06:09:27;7.70;;;4.82;;
53642;SDS011;39546;45.534;12.048;2022-12-08T06:15:45;7.22;;;5.43;;
53642;SDS011;39546;45.534;12.048;2022-12-08T06:21:47;9.20;;;5.37;;
53642;SDS011;39546;45.534;12.048;2022-12-08T06:34:14;6.87;;;5.00;;
53642;SDS011;39546;45.534;12.048;2022-12-08T06:40:16;9.38;;;7.05;;
53642;SDS011;39546;45.534;12.048;2022-12-08T06:46:18;6.62;;;4.55;;
53642;SDS011;39546;45.534;12.048;2022-12-08T06:52:21;6.60;;;4.60;;
53642;SDS011;39546;45.534;12.048;2022-12-08T06:58:23;10.60;;;7.43;;
53642;SDS011;39546;45.534;12.048;2022-12-08T07:04:32;9.57;;;6.40;;
53642;SDS011;39546;45.534;12.048;2022-12-08T07:10:34;11.02;;;8.55;;
53642;SDS011;39546;45.534;12.048;2022-12-08T07:16:36;10.13;;;6.85;;
53642;SDS011;39546;45.534;12.048;2022-12-08T07:22:47;8.98;;;6.05;;
53642;SDS011;39546;45.534;12.048;2022-12-08T07:28:50;12.05;;;9.55;;
53642;SDS011;39546;45.534;12.048;2022-12-08T07:34:52;12.57;;;10.60;;
53642;SDS011;39546;45.534;12.048;2022-12-08T07:40:54;13.18;;;9.60;;
53642;SDS011;39546;45.534;12.048;2022-12-08T07:46:56;17.17;;;10.23;;
53642;SDS011;39546;45.534;12.048;2022-12-08T07:52:59;19.75;;;11.30;;
53642;SDS011;39546;45.534;12.048;2022-12-08T07:59:01;14.07;;;9.75;;
53642;SDS011;39546;45.534;12.048;2022-12-08T08:05:04;12.60;;;8.18;;
53642;SDS011;39546;45.534;12.048;2022-12-08T08:11:06;13.82;;;9.30;;
53642;SDS011;39546;45.534;12.048;2022-12-08T08:17:09;11.75;;;7.20;;
53642;SDS011;39546;45.534;12.048;2022-12-08T08:23:11;10.70;;;7.20;;
53642;SDS011;39546;45.534;12.048;2022-12-08T08:29:13;13.75;;;9.30;;
53642;SDS011;39546;45.534;12.048;2022-12-08T08:35:15;12.50;;;9.07;;
53642;SDS011;39546;45.534;12.048;2022-12-08T08:41:18;22.37;;;14.87;;
53642;SDS011;39546;45.534;12.048;2022-12-08T08:47:20;14.57;;;11.82;;
53642;SDS011;39546;45.534;12.048;2022-12-08T08:53:22;15.40;;;12.10;;
53642;SDS011;39546;45.534;12.048;2022-12-08T08:59:25;17.27;;;12.63;;
53642;SDS011;39546;45.534;12.048;2022-12-08T09:05:27;11.95;;;9.00;;
53642;SDS011;39546;45.534;12.048;2022-12-08T09:11:30;12.77;;;8.18;;
53642;SDS011;39546;45.534;12.048;2022-12-08T09:17:33;12.70;;;9.60;;
53642;SDS011;39546;45.534;12.048;2022-12-08T09:23:35;12.63;;;9.80;;
53642;SDS011;39546;45.534;12.048;2022-12-08T09:29:37;17.87;;;11.00;;
53642;SDS011;39546;45.534;12.048;2022-12-08T09:35:39;13.02;;;9.88;;
53642;SDS011;39546;45.534;12.048;2022-12-08T10:00:04;13.27;;;8.65;;
53642;SDS011;39546;45.534;12.048;2022-12-08T10:19:09;13.18;;;10.23;;
53642;SDS011;39546;45.534;12.048;2022-12-08T10:31:47;9.23;;;7.35;;
53642;SDS011;39546;45.534;12.048;2022-12-08T10:37:56;10.75;;;8.00;;
53642;SDS011;39546;45.534;12.048;2022-12-08T10:44:00;13.18;;;10.15;;
53642;SDS011;39546;45.534;12.048;2022-12-08T10:50:20;9.43;;;7.18;;
53642;SDS011;39546;45.534;12.048;2022-12-08T10:56:31;9.38;;;6.65;;
53642;SDS011;39546;45.534;12.048;2022-12-08T11:02:34;7.18;;;5.28;;
53642;SDS011;39546;45.534;12.048;2022-12-08T11:08:42;9.55;;;7.03;;
53642;SDS011;39546;45.534;12.048;2022-12-08T11:21:07;12.40;;;8.13;;
53642;SDS011;39546;45.534;12.048;2022-12-08T11:27:13;16.25;;;10.15;;
53642;SDS011;39546;45.534;12.048;2022-12-08T11:33:23;17.17;;;13.62;;
53642;SDS011;39546;45.534;12.048;2022-12-08T11:39:27;13.07;;;9.40;;
53642;SDS011;39546;45.534;12.048;2022-12-08T11:45:34;11.65;;;8.60;;
53642;SDS011;39546;45.534;12.048;2022-12-08T11:57:47;10.52;;;8.55;;
53642;SDS011;39546;45.534;12.048;2022-12-08T12:16:37;10.23;;;6.55;;
53642;SDS011;39546;45.534;12.048;2022-12-08T12:23:05;24.00;;;8.88;;
53642;SDS011;39546;45.534;12.048;2022-12-08T12:29:32;12.23;;;7.93;;
53642;SDS011;39546;45.534;12.048;2022-12-08T12:35:39;19.40;;;12.32;;
53642;SDS011;39546;45.534;12.048;2022-12-08T12:41:45;13.10;;;9.13;;
53642;SDS011;39546;45.534;12.048;2022-12-08T12:54:22;11.50;;;7.50;;
53642;SDS011;39546;45.534;12.048;2022-12-08T13:00:25;10.25;;;7.37;;
53642;SDS011;39546;45.534;12.048;2022-12-08T13:06:47;10.18;;;7.20;;
53642;SDS011;39546;45.534;12.048;2022-12-08T13:19:12;12.43;;;7.87;;
53642;SDS011;39546;45.534;12.048;2022-12-08T13:37:45;7.72;;;5.15;;
53642;SDS011;39546;45.534;12.048;2022-12-08T13:43:51;6.15;;;3.72;;
53642;SDS011;39546;45.534;12.048;2022-12-08T13:56:10;8.93;;;5.62;;
53642;SDS011;39546;45.534;12.048;2022-12-08T14:02:28;9.23;;;6.03;;
53642;SDS011;39546;45.534;12.048;2022-12-08T14:08:36;7.57;;;5.53;;
53642;SDS011;39546;45.534;12.048;2022-12-08T14:14:39;7.12;;;5.50;;
53642;SDS011;39546;45.534;12.048;2022-12-08T14:20:46;7.78;;;4.07;;
53642;SDS011;39546;45.534;12.048;2022-12-08T14:27:06;6.97;;;4.22;;
53642;SDS011;39546;45.534;12.048;2022-12-08T14:33:13;7.62;;;5.15;;
53642;SDS011;39546;45.534;12.048;2022-12-08T14:39:51;8.70;;;5.15;;
53642;SDS011;39546;45.534;12.048;2022-12-08T14:45:59;6.20;;;4.25;;
53642;SDS011;39546;45.534;12.048;2022-12-08T14:52:06;6.80;;;3.97;;
53642;SDS011;39546;45.534;12.048;2022-12-08T14:58:16;14.05;;;8.82;;
53642;SDS011;39546;45.534;12.048;2022-12-08T15:04:24;8.40;;;5.87;;
53642;SDS011;39546;45.534;12.048;2022-12-08T15:10:29;10.77;;;7.82;;
53642;SDS011;39546;45.534;12.048;2022-12-08T15:22:37;13.73;;;8.43;;
53642;SDS011;39546;45.534;12.048;2022-12-08T15:28:40;11.02;;;8.52;;
53642;SDS011;39546;45.534;12.048;2022-12-08T15:34:42;10.57;;;8.15;;
53642;SDS011;39546;45.534;12.048;2022-12-08T15:40:44;11.15;;;7.50;;
53642;SDS011;39546;45.534;12.048;2022-12-08T15:46:46;14.23;;;8.75;;
53642;SDS011;39546;45.534;12.048;2022-12-08T15:52:50;11.10;;;8.68;;
53642;SDS011;39546;45.534;12.048;2022-12-08T15:58:52;13.98;;;10.43;;
53642;SDS011;39546;45.534;12.048;2022-12-08T16:04:54;14.75;;;8.90;;
53642;SDS011;39546;45.534;12.048;2022-12-08T16:10:56;17.60;;;10.40;;
53642;SDS011;39546;45.534;12.048;2022-12-08T16:17:18;11.40;;;8.32;;
53642;SDS011;39546;45.534;12.048;2022-12-08T16:23:21;13.50;;;9.90;;
53642;SDS011;39546;45.534;12.048;2022-12-08T16:29:49;17.55;;;11.12;;
53642;SDS011;39546;45.534;12.048;2022-12-08T16:35:51;19.02;;;14.23;;
53642;SDS011;39546;45.534;12.048;2022-12-08T16:41:53;18.98;;;13.65;;
53642;SDS011;39546;45.534;12.048;2022-12-08T16:48:13;19.90;;;15.07;;
53642;SDS011;39546;45.534;12.048;2022-12-08T16:54:16;23.20;;;18.45;;
53642;SDS011;39546;45.534;12.048;2022-12-08T17:00:22;27.00;;;20.90;;
53642;SDS011;39546;45.534;12.048;2022-12-08T17:06:25;19.92;;;17.10;;
53642;SDS011;39546;45.534;12.048;2022-12-08T17:12:27;22.17;;;16.90;;
53642;SDS011;39546;45.534;12.048;2022-12-08T17:18:30;21.60;;;15.60;;
53642;SDS011;39546;45.534;12.048;2022-12-08T17:24:32;23.55;;;16.83;;
53642;SDS011;39546;45.534;12.048;2022-12-08T17:30:33;26.60;;;23.77;;
53642;SDS011;39546;45.534;12.048;2022-12-08T17:36:36;22.67;;;18.65;;
53642;SDS011;39546;45.534;12.048;2022-12-08T17:42:38;25.77;;;20.90;;
53642;SDS011;39546;45.534;12.048;2022-12-08T17:48:40;24.45;;;20.08;;
53642;SDS011;39546;45.534;12.048;2022-12-08T17:54:42;25.45;;;19.87;;
53642;SDS011;39546;45.534;12.048;2022-12-08T18:00:44;26.10;;;22.37;;
53642;SDS011;39546;45.534;12.048;2022-12-08T18:06:46;22.73;;;17.60;;
53642;SDS011;39546;45.534;12.048;2022-12-08T18:12:48;23.02;;;17.73;;
53642;SDS011;39546;45.534;12.048;2022-12-08T18:18:51;22.17;;;17.92;;
53642;SDS011;39546;45.534;12.048;2022-12-08T18:24:54;23.35;;;14.85;;
53642;SDS011;39546;45.534;12.048;2022-12-08T18:30:56;22.30;;;17.35;;
53642;SDS011;39546;45.534;12.048;2022-12-08T18:36:58;22.70;;;16.90;;
53642;SDS011;39546;45.534;12.048;2022-12-08T18:43:00;20.95;;;17.42;;
53642;SDS011;39546;45.534;12.048;2022-12-08T18:49:02;35.08;;;26.67;;
53642;SDS011;39546;45.534;12.048;2022-12-08T18:55:04;34.25;;;30.62;;
53642;SDS011;39546;45.534;12.048;2022-12-08T19:07:30;27.08;;;24.12;;
53642;SDS011;39546;45.534;12.048;2022-12-08T19:13:32;34.20;;;24.73;;
53642;SDS011;39546;45.534;12.048;2022-12-08T19:19:34;25.20;;;21.00;;
53642;SDS011;39546;45.534;12.048;2022-12-08T19:25:36;24.87;;;22.10;;
53642;SDS011;39546;45.534;12.048;2022-12-08T19:31:39;30.08;;;25.40;;
53642;SDS011;39546;45.534;12.048;2022-12-08T19:37:41;34.08;;;28.98;;
53642;SDS011;39546;45.534;12.048;2022-12-08T19:43:43;33.60;;;24.00;;
53642;SDS011;39546;45.534;12.048;2022-12-08T19:56:38;37.60;;;28.42;;
53642;SDS011;39546;45.534;12.048;2022-12-08T20:02:40;36.72;;;28.55;;
53642;SDS011;39546;45.534;12.048;2022-12-08T20:08:43;32.20;;;25.90;;
53642;SDS011;39546;45.534;12.048;2022-12-08T20:15:08;30.50;;;26.27;;
53642;SDS011;39546;45.534;12.048;2022-12-08T20:21:10;31.95;;;25.70;;
53642;SDS011;39546;45.534;12.048;2022-12-08T20:27:14;32.90;;;27.73;;
53642;SDS011;39546;45.534;12.048;2022-12-08T20:33:16;29.67;;;24.48;;
53642;SDS011;39546;45.534;12.048;2022-12-08T20:39:40;40.47;;;34.60;;
53642;SDS011;39546;45.534;12.048;2022-12-08T20:45:43;28.67;;;23.83;;
53642;SDS011;39546;45.534;12.048;2022-12-08T20:51:45;26.77;;;22.95;;
53642;SDS011;39546;45.534;12.048;2022-12-08T20:57:47;30.12;;;23.65;;
53642;SDS011;39546;45.534;12.048;2022-12-08T21:03:50;38.40;;;27.95;;
53642;SDS011;39546;45.534;12.048;2022-12-08T21:09:53;28.83;;;23.77;;
53642;SDS011;39546;45.534;12.048;2022-12-08T21:15:56;26.83;;;22.58;;
53642;SDS011;39546;45.534;12.048;2022-12-08T21:21:58;31.23;;;23.95;;
53642;SDS011;39546;45.534;12.048;2022-12-08T21:28:01;26.45;;;22.02;;
53642;SDS011;39546;45.534;12.048;2022-12-08T21:34:03;30.12;;;23.40;;
53642;SDS011;39546;45.534;12.048;2022-12-08T21:40:06;27.20;;;22.62;;
53642;SDS011;39546;45.534;12.048;2022-12-08T21:46:14;29.55;;;24.50;;
53642;SDS011;39546;45.534;12.048;2022-12-08T21:52:17;29.15;;;25.70;;
53642;SDS011;39546;45.534;12.048;2022-12-08T21:58:19;34.05;;;29.05;;
53642;SDS011;39546;45.534;12.048;2022-12-08T22:04:21;27.92;;;22.65;;
53642;SDS011;39546;45.534;12.048;2022-12-08T22:10:25;34.60;;;22.25;;
53642;SDS011;39546;45.534;12.048;2022-12-08T22:16:27;25.70;;;21.42;;
53642;SDS011;39546;45.534;12.048;2022-12-08T22:22:31;25.75;;;20.42;;
53642;SDS011;39546;45.534;12.048;2022-12-08T22:28:37;29.15;;;21.55;;
53642;SDS011;39546;45.534;12.048;2022-12-08T22:34:42;25.75;;;20.15;;
53642;SDS011;39546;45.534;12.048;2022-12-08T22:40:45;39.15;;;28.30;;
53642;SDS011;39546;45.534;12.048;2022-12-08T22:46:47;31.85;;;28.27;;
53642;SDS011;39546;45.534;12.048;2022-12-08T22:52:50;33.28;;;26.42;;
53642;SDS011;39546;45.534;12.048;2022-12-08T22:58:52;31.62;;;23.35;;
53642;SDS011;39546;45.534;12.048;2022-12-08T23:04:54;33.38;;;26.25;;
53642;SDS011;39546;45.534;12.048;2022-12-08T23:10:57;26.83;;;22.90;;
53642;SDS011;39546;45.534;12.048;2022-12-08T23:16:59;44.67;;;28.62;;
53642;SDS011;39546;45.534;12.048;2022-12-08T23:23:01;30.17;;;23.17;;
53642;SDS011;39546;45.534;12.048;2022-12-08T23:29:03;39.90;;;30.35;;
53642;SDS011;39546;45.534;12.048;2022-12-08T23:35:06;41.22;;;29.83;;
53642;SDS011;39546;45.534;12.048;2022-12-08T23:41:17;43.22;;;30.08;;
53642;SDS011;39546;45.534;12.048;2022-12-08T23:47:19;39.05;;;31.27;;
53642;SDS011;39546;45.534;12.048;2022-12-08T23:53:22;31.45;;;22.75;;
53642;SDS011;39546;45.534;12.048;2022-12-08T23:59:24;24.50;;;20.02;;
